Time;durP1;ratioP1;P1;durP2;ratioP2;P2;SDS_P1;SDS_P2;PMS_P1;PMS_P2;Temp;Humidity;BMP_temperature;BMP_pressure;BME280_temperature;BME280_humidity;BME280_pressure;Samples;Min_cycle;Max_cycle;Signal;HPM_P1;HPM_P2
2024/03/18 00:01:31;;;;;;;;;;;;;;;;;;2202991;66;1730;-23
2024/03/18 00:04:01;;;;;;;;;;;;;;;;;;2200591;66;1451;-23
2024/03/18 00:06:32;;;;;;;;;;;;;;;;;;2202248;66;1993;-23
2024/03/18 00:09:02;;;;;;;;;;;;;;;;;;2200291;66;1498;-23
2024/03/18 00:11:32;;;;;;;;;;;;;;;;;;2199921;66;1697;-23
2024/03/18 00:14:02;;;;;;;;;;;;;;;;;;2202419;58;1771;-23
2024/03/18 00:16:33;;;;;;;;;;;;;;;;;;2199471;66;1638;-23
2024/03/18 00:19:03;;;;;;;;;;;;;;;;;;2198702;66;1590;-23
2024/03/18 00:21:36;;;;;;;;;;;;;;;;;;2203034;66;1587;-23
2024/03/18 00:24:06;;;;;;;;;;;;;;;;;;2199344;59;1778;-23
2024/03/18 00:26:36;;;;;;;;;;;;;;;;;;2201745;66;1953;-23
2024/03/18 00:29:06;;;;;;;;;;;;;;;;;;2198798;59;1477;-23
2024/03/18 00:31:36;;;;;;;;;;;;;;;;;;2202461;66;1159;-23
2024/03/18 00:34:07;;;;;;;;;;;;;;;;;;2198000;59;2273;-23
2024/03/18 00:36:37;;;;;;;;;;;;;;;;;;2202047;59;1441;-23
2024/03/18 00:39:08;;;;;;;;;;;;;;;;;;2201698;59;1923;-23
2024/03/18 00:41:44;;;;;;;;;;;;;;;;;;2202345;66;1758;-23
2024/03/18 00:44:23;;;;;;;;;;;;;;;;;;2199065;59;1283;-23
2024/03/18 00:46:55;;;;;;;;;;;;;;;;;;2202039;59;1998;-23
2024/03/18 00:49:25;;;;;;;;;;;;;;;;;;2201696;59;1698;-23
2024/03/18 00:51:55;;;;;;;;;;;;;;;;;;2202083;66;1345;-23
2024/03/18 00:54:26;;;;;;;;;;;;;;;;;;2202077;59;1446;-23
2024/03/18 00:56:57;;;;;;;;;;;;;;;;;;2202073;66;1630;-23
2024/03/18 00:59:27;;;;;;;;;;;;;;;;;;2201779;66;1483;-23
2024/03/18 01:01:57;;;;;;;;;;;;;;;;;;2195516;66;1778;-23
2024/03/18 01:04:28;;;;;;;;;;;;;;;;;;2202113;59;1318;-23
2024/03/18 01:07:00;;;;;;;;;;;;;;;;;;2198355;66;1983;-23
2024/03/18 01:09:31;;;;;;;;;;;;;;;;;;2199030;66;1551;-23
2024/03/18 01:12:01;;;;;;;;;;;;;;;;;;2202737;66;1420;-23
2024/03/18 01:14:31;;;;;;;;;;;;;;;;;;2198814;59;1422;-23
2024/03/18 01:17:02;;;;;;;;;;;;;;;;;;2202230;66;1316;-23
2024/03/18 01:19:33;;;;;;;;;;;;;;;;;;2198717;66;1231;-23
2024/03/18 01:22:03;;;;;;;;;;;;;;;;;;2201324;66;1351;-23
2024/03/18 01:24:33;;;;;;;;;;;;;;;;;;2199805;59;1747;-23
2024/03/18 01:27:04;;;;;;;;;;;;;;;;;;2201681;66;2008;-23
2024/03/18 01:29:34;;;;;;;;;;;;;;;;;;2198436;59;1271;-23
2024/03/18 01:32:04;;;;;;;;;;;;;;;;;;2201385;66;1310;-23
2024/03/18 01:34:35;;;;;;;;;;;;;;;;;;2202401;59;1681;-23
2024/03/18 01:37:05;;;;;;;;;;;;;;;;;;2201501;59;1336;-23
2024/03/18 01:39:35;;;;;;;;;;;;;;;;;;2202361;59;1670;-23
2024/03/18 01:42:05;;;;;;;;;;;;;;;;;;2197860;66;1200;-23
2024/03/18 01:44:50;;;;;;;;;;;;;;;;;;2198600;59;1445;-23
2024/03/18 01:47:21;;;;;;;;;;;;;;;;;;2201759;59;2002;-23
2024/03/18 01:49:52;;;;;;;;;;;;;;;;;;2201868;59;1479;-23
2024/03/18 01:52:23;;;;;;;;;;;;;;;;;;2201915;58;1303;-23
2024/03/18 01:54:53;;;;;;;;;;;;;;;;;;2195756;66;1710;-23
2024/03/18 01:57:24;;;;;;;;;;;;;;;;;;2199244;66;1326;-23
2024/03/18 01:59:54;;;;;;;;;;;;;;;;;;2201525;66;1211;-23
2024/03/18 02:02:24;;;;;;;;;;;;;;;;;;2198634;66;1573;-23
2024/03/18 02:04:55;;;;;;;;;;;;;;;;;;2201488;66;1567;-23
2024/03/18 02:07:26;;;;;;;;;;;;;;;;;;2201576;66;1928;-23
2024/03/18 02:09:56;;;;;;;;;;;;;;;;;;2201482;66;1542;-23
2024/03/18 02:12:27;;;;;;;;;;;;;;;;;;2200339;66;1140;-23
2024/03/18 02:14:57;;;;;;;;;;;;;;;;;;2201178;59;1341;-23
2024/03/18 02:17:27;;;;;;;;;;;;;;;;;;2200332;59;1256;-23
2024/03/18 02:19:57;;;;;;;;;;;;;;;;;;2200726;59;1292;-23
2024/03/18 02:22:28;;;;;;;;;;;;;;;;;;2202488;66;1396;-23
2024/03/18 02:24:58;;;;;;;;;;;;;;;;;;2201528;59;1685;-23
2024/03/18 02:27:28;;;;;;;;;;;;;;;;;;2198717;66;1943;-23
2024/03/18 02:29:58;;;;;;;;;;;;;;;;;;2200520;59;1507;-23
2024/03/18 02:32:31;;;;;;;;;;;;;;;;;;2201873;59;2071;-23
2024/03/18 02:35:05;;;;;;;;;;;;;;;;;;2201402;59;2239;-23
2024/03/18 02:37:35;;;;;;;;;;;;;;;;;;2202837;59;1447;-23
2024/03/18 02:40:08;;;;;;;;;;;;;;;;;;2201335;59;1909;-23
2024/03/18 02:42:39;;;;;;;;;;;;;;;;;;2202395;66;1428;-23
2024/03/18 02:45:10;;;;;;;;;;;;;;;;;;2201944;59;1628;-23
2024/03/18 02:47:42;;;;;;;;;;;;;;;;;;2201880;59;1927;-23
2024/03/18 02:50:14;;;;;;;;;;;;;;;;;;2201154;66;1136;-23
2024/03/18 02:52:46;;;;;;;;;;;;;;;;;;2201848;66;1361;-23
2024/03/18 02:55:16;;;;;;;;;;;;;;;;;;2199212;66;1879;-23
2024/03/18 02:57:46;;;;;;;;;;;;;;;;;;2202048;66;1905;-23
2024/03/18 03:00:17;;;;;;;;;;;;;;;;;;2201795;66;1368;-23
2024/03/18 03:02:47;;;;;;;;;;;;;;;;;;2198238;66;1905;-23
2024/03/18 03:05:17;;;;;;;;;;;;;;;;;;2196997;66;1645;-23
2024/03/18 03:07:48;;;;;;;;;;;;;;;;;;2197563;66;1945;-23
2024/03/18 03:10:18;;;;;;;;;;;;;;;;;;2201799;66;1252;-23
2024/03/18 03:12:49;;;;;;;;;;;;;;;;;;2201248;59;1555;-23
2024/03/18 03:15:19;;;;;;;;;;;;;;;;;;2197990;59;1436;-23
2024/03/18 03:17:50;;;;;;;;;;;;;;;;;;2201014;66;1136;-23
2024/03/18 03:20:30;;;;;;;;;;;;;;;;;;2201959;66;1652;-23
2024/03/18 03:23:00;;;;;;;;;;;;;;;;;;2201794;59;1502;-23
2024/03/18 03:25:31;;;;;;;;;;;;;;;;;;2200663;66;1349;-23
2024/03/18 03:28:01;;;;;;;;;;;;;;;;;;2201064;66;1946;-23
2024/03/18 03:30:31;;;;;;;;;;;;;;;;;;2196060;66;1555;-23
2024/03/18 03:33:05;;;;;;;;;;;;;;;;;;2197983;66;1310;-23
2024/03/18 03:35:35;;;;;;;;;;;;;;;;;;2201902;59;1982;-23
2024/03/18 03:38:05;;;;;;;;;;;;;;;;;;2200848;59;1269;-23
2024/03/18 03:40:36;;;;;;;;;;;;;;;;;;2202476;59;1753;-23
2024/03/18 03:43:07;;;;;;;;;;;;;;;;;;2199545;59;1363;-23
2024/03/18 03:45:37;;;;;;;;;;;;;;;;;;2199490;59;1943;-23
2024/03/18 03:48:07;;;;;;;;;;;;;;;;;;2201344;59;1410;-22
2024/03/18 03:50:37;;;;;;;;;;;;;;;;;;2205168;66;1252;-22
2024/03/18 03:53:08;;;;;;;;;;;;;;;;;;2201119;66;1681;-22
2024/03/18 03:55:38;;;;;;;;;;;;;;;;;;2202512;66;1219;-22
2024/03/18 03:58:09;;;;;;;;;;;;;;;;;;2198687;66;2063;-22
2024/03/18 04:00:43;;;;;;;;;;;;;;;;;;2201510;66;1858;-23
2024/03/18 04:03:18;;;;;;;;;;;;;;;;;;2199281;66;1286;-22
2024/03/18 04:05:48;;;;;;;;;;;;;;;;;;2199405;66;2021;-22
2024/03/18 04:08:18;;;;;;;;;;;;;;;;;;2200920;59;1299;-22
2024/03/18 04:10:49;;;;;;;;;;;;;;;;;;2203510;66;1218;-22
2024/03/18 04:13:19;;;;;;;;;;;;;;;;;;2200890;59;1297;-22
2024/03/18 04:15:50;;;;;;;;;;;;;;;;;;2201297;66;1788;-22
2024/03/18 04:18:20;;;;;;;;;;;;;;;;;;2203683;59;1270;-22
2024/03/18 04:20:51;;;;;;;;;;;;;;;;;;2203522;66;1465;-22
2024/03/18 04:23:21;;;;;;;;;;;;;;;;;;2202537;66;1408;-22
2024/03/18 04:25:52;;;;;;;;;;;;;;;;;;2197770;66;2003;-22
2024/03/18 04:28:22;;;;;;;;;;;;;;;;;;2201835;66;1256;-22
2024/03/18 04:30:52;;;;;;;;;;;;;;;;;;2202409;59;1370;-22
2024/03/18 04:33:23;;;;;;;;;;;;;;;;;;2200396;59;1664;-22
2024/03/18 04:35:53;;;;;;;;;;;;;;;;;;2202345;59;2013;-22
2024/03/18 04:38:23;;;;;;;;;;;;;;;;;;2202496;59;2241;-22
2024/03/18 04:40:54;;;;;;;;;;;;;;;;;;2199616;58;1780;-22
2024/03/18 04:43:24;;;;;;;;;;;;;;;;;;2199588;59;1613;-22
2024/03/18 04:45:54;;;;;;;;;;;;;;;;;;2198350;59;1980;-22
2024/03/18 04:48:24;;;;;;;;;;;;;;;;;;2202268;59;1445;-22
2024/03/18 04:50:55;;;;;;;;;;;;;;;;;;2198268;66;1546;-22
2024/03/18 04:53:25;;;;;;;;;;;;;;;;;;2201103;66;1156;-23
2024/03/18 04:55:55;;;;;;;;;;;;;;;;;;2197627;66;1240;-22
2024/03/18 04:58:25;;;;;;;;;;;;;;;;;;2201364;66;1522;-23
2024/03/18 05:00:55;;;;;;;;;;;;;;;;;;2198391;59;1176;-22
2024/03/18 05:03:26;;;;;;;;;;;;;;;;;;2201983;66;1129;-22
2024/03/18 05:05:56;;;;;;;;;;;;;;;;;;2198574;66;1948;-22
2024/03/18 05:08:26;;;;;;;;;;;;;;;;;;2201745;66;1675;-22
2024/03/18 05:10:56;;;;;;;;;;;;;;;;;;2198311;59;1296;-22
2024/03/18 05:13:27;;;;;;;;;;;;;;;;;;2202699;59;1421;-22
2024/03/18 05:15:57;;;;;;;;;;;;;;;;;;2201033;66;1316;-22
2024/03/18 05:18:27;;;;;;;;;;;;;;;;;;2200402;66;1408;-22
2024/03/18 05:20:57;;;;;;;;;;;;;;;;;;2199720;66;1408;-22
2024/03/18 05:23:28;;;;;;;;;;;;;;;;;;2202109;59;1394;-22
2024/03/18 05:25:58;;;;;;;;;;;;;;;;;;2200057;66;2074;-22
2024/03/18 05:28:28;;;;;;;;;;;;;;;;;;2204476;66;1577;-23
2024/03/18 05:30:58;;;;;;;;;;;;;;;;;;2198759;66;1693;-23
2024/03/18 05:33:28;;;;;;;;;;;;;;;;;;2202551;66;1587;-23
2024/03/18 05:35:59;;;;;;;;;;;;;;;;;;2196130;59;1223;-23
2024/03/18 05:38:29;;;;;;;;;;;;;;;;;;2196415;59;1847;-23
2024/03/18 05:40:59;;;;;;;;;;;;;;;;;;2198390;59;1622;-23
2024/03/18 05:43:29;;;;;;;;;;;;;;;;;;2202107;59;1358;-23
2024/03/18 05:46:00;;;;;;;;;;;;;;;;;;2198743;59;2000;-23
2024/03/18 05:48:30;;;;;;;;;;;;;;;;;;2202399;59;1412;-23
2024/03/18 05:51:00;;;;;;;;;;;;;;;;;;2199784;66;1367;-23
2024/03/18 05:53:30;;;;;;;;;;;;;;;;;;2199264;66;1264;-23
2024/03/18 05:56:02;;;;;;;;;;;;;;;;;;2201529;66;1400;-23
2024/03/18 05:58:41;;;;;;;;;;;;;;;;;;2202546;66;1637;-23
2024/03/18 06:01:12;;;;;;;;;;;;;;;;;;2197847;66;1391;-23
2024/03/18 06:03:45;;;;;;;;;;;;;;;;;;2198506;66;1753;-23
2024/03/18 06:06:15;;;;;;;;;;;;;;;;;;2198629;66;2002;-23
2024/03/18 06:08:45;;;;;;;;;;;;;;;;;;2195699;66;1796;-23
2024/03/18 06:11:15;;;;;;;;;;;;;;;;;;2201559;59;1415;-22
2024/03/18 06:13:46;;;;;;;;;;;;;;;;;;2202568;59;1447;-22
2024/03/18 06:16:16;;;;;;;;;;;;;;;;;;2198760;66;1539;-22
2024/03/18 06:18:49;;;;;;;;;;;;;;;;;;2198102;66;1543;-22
2024/03/18 06:21:19;;;;;;;;;;;;;;;;;;2198112;66;1677;-22
2024/03/18 06:23:55;;;;;;;;;;;;;;;;;;2202349;59;1457;-22
2024/03/18 06:26:25;;;;;;;;;;;;;;;;;;2200965;66;1952;-23
2024/03/18 06:28:56;;;;;;;;;;;;;;;;;;2199122;66;1526;-23
2024/03/18 06:31:26;;;;;;;;;;;;;;;;;;2199884;66;1946;-23
2024/03/18 06:33:57;;;;;;;;;;;;;;;;;;2199905;59;1738;-22
2024/03/18 06:36:27;;;;;;;;;;;;;;;;;;2197806;59;2041;-22
2024/03/18 06:38:57;;;;;;;;;;;;;;;;;;2213996;58;1821;-23
2024/03/18 06:41:28;;;;;;;;;;;;;;;;;;2197676;66;1604;-23
2024/03/18 06:43:59;;;;;;;;;;;;;;;;;;2201628;59;1284;-23
2024/03/18 06:46:29;;;;;;;;;;;;;;;;;;2201428;59;2016;-23
2024/03/18 06:48:59;;;;;;;;;;;;;;;;;;2201488;59;1395;-23
2024/03/18 06:51:29;;;;;;;;;;;;;;;;;;2198515;66;1282;-23
2024/03/18 06:53:59;;;;;;;;;;;;;;;;;;2198368;66;1435;-23
2024/03/18 06:56:30;;;;;;;;;;;;;;;;;;2202607;66;1369;-23
2024/03/18 06:59:00;;;;;;;;;;;;;;;;;;2201850;59;1228;-23
2024/03/18 07:01:30;;;;;;;;;;;;;;;;;;2208247;66;1567;-23
2024/03/18 07:04:00;;;;;;;;;;;;;;;;;;2202217;66;1427;-23
2024/03/18 07:06:31;;;;;;;;;;;;;;;;;;2202965;66;1941;-23
2024/03/18 07:09:01;;;;;;;;;;;;;;;;;;2202633;59;1205;-23
2024/03/18 07:11:32;;;;;;;;;;;;;;;;;;2199661;59;2206;-23
2024/03/18 07:14:02;;;;;;;;;;;;;;;;;;2201313;59;2495;-23
2024/03/18 07:16:33;;;;;;;;;;;;;;;;;;2199668;59;2429;-23
2024/03/18 07:19:03;;;;;;;;;;;;;;;;;;2198272;59;2361;-23
2024/03/18 07:21:33;;;;;;;;;;;;;;;;;;2201622;59;2456;-23
2024/03/18 07:24:04;;;;;;;;;;;;;;;;;;2200814;59;2343;-23
2024/03/18 07:26:35;;;;;;;;;;;;;;;;;;2200861;59;2487;-24
2024/03/18 07:29:05;;;;;;;;;;;;;;;;;;2200684;59;2284;-23
2024/03/18 07:31:35;;;;;;;;;;;;;;;;;;2198677;59;2167;-23
2024/03/18 07:34:05;;;;;;;;;;;;;;;;;;2197872;59;2100;-23
2024/03/18 07:36:36;;;;;;;;;;;;;;;;;;2201451;59;2163;-23
2024/03/18 07:39:06;;;;;;;;;;;;;;;;;;2201046;59;2109;-23
2024/03/18 07:41:36;;;;;;;;;;;;;;;;;;2199987;59;2392;-23
2024/03/18 07:44:07;;;;;;;;;;;;;;;;;;2204041;59;2337;-23
2024/03/18 07:46:37;;;;;;;;;;;;;;;;;;2200823;59;2138;-23
2024/03/18 07:49:08;;;;;;;;;;;;;;;;;;2200681;59;2577;-23
2024/03/18 07:51:38;;;;;;;;;;;;;;;;;;2198400;59;2462;-23
2024/03/18 07:54:09;;;;;;;;;;;;;;;;;;2197529;59;2054;-23
2024/03/18 07:56:39;;;;;;;;;;;;;;;;;;2198966;59;2157;-22
2024/03/18 07:59:09;;;;;;;;;;;;;;;;;;2200152;59;2166;-23
2024/03/18 08:01:40;;;;;;;;;;;;;;;;;;2200945;59;2785;-23
2024/03/18 08:04:10;;;;;;;;;;;;;;;;;;2197119;59;2337;-22
2024/03/18 08:06:45;;;;;;;;;;;;;;;;;;2200438;59;2372;-23
2024/03/18 08:09:19;;;;;;;;;;;;;;;;;;2201316;59;3755;-23
2024/03/18 08:11:50;;;;;;;;;;;;;;;;;;2202259;59;3519;-24
2024/03/18 08:14:20;;;;;;;;;;;;;;;;;;2202282;59;1290;-24
2024/03/18 08:16:50;;;;;;;;;;;;;;;;;;2201848;59;2292;-23
2024/03/18 08:19:21;;;;;;;;;;;;;;;;;;2200085;58;2357;-23
2024/03/18 08:21:51;;;;;;;;;;;;;;;;;;2202410;59;2981;-23
2024/03/18 08:24:21;;;;;;;;;;;;;;;;;;2201381;66;1327;-23
2024/03/18 08:26:54;;;;;;;;;;;;;;;;;;2196360;66;1952;-23
2024/03/18 08:29:27;;;;;;;;;;;;;;;;;;2202527;59;2334;-23
2024/03/18 08:31:57;;;;;;;;;;;;;;;;;;2198681;59;2287;-23
2024/03/18 08:34:27;;;;;;;;;;;;;;;;;;2196718;58;2110;-23
2024/03/18 08:36:59;;;;;;;;;;;;;;;;;;2198571;59;1707;-23
2024/03/18 08:39:29;;;;;;;;;;;;;;;;;;2200387;59;2146;-24
2024/03/18 08:41:59;;;;;;;;;;;;;;;;;;2201131;59;2243;-23
2024/03/18 08:44:29;;;;;;;;;;;;;;;;;;2196039;59;2011;-24
2024/03/18 08:47:00;;;;;;;;;;;;;;;;;;2197427;66;1938;-24
2024/03/18 08:49:30;;;;;;;;;;;;;;;;;;2201573;59;1656;-24
2024/03/18 08:52:01;;;;;;;;;;;;;;;;;;2198703;66;1971;-24
2024/03/18 08:54:32;;;;;;;;;;;;;;;;;;2199850;66;1669;-24
2024/03/18 08:57:03;;;;;;;;;;;;;;;;;;2201740;59;2049;-24
2024/03/18 08:59:33;;;;;;;;;;;;;;;;;;2201036;59;2541;-24
2024/03/18 09:02:03;;;;;;;;;;;;;;;;;;2200658;59;2208;-24
2024/03/18 09:04:34;;;;;;;;;;;;;;;;;;2201374;59;2418;-25
2024/03/18 09:07:04;;;;;;;;;;;;;;;;;;2200526;59;1940;-24
2024/03/18 09:09:34;;;;;;;;;;;;;;;;;;2199562;59;2076;-24
2024/03/18 09:12:04;;;;;;;;;;;;;;;;;;2198713;59;1813;-24
2024/03/18 09:14:35;;;;;;;;;;;;;;;;;;2200067;59;2175;-25
2024/03/18 09:17:05;;;;;;;;;;;;;;;;;;2200073;66;1648;-25
2024/03/18 09:19:40;;;;;;;;;;;;;;;;;;2197816;66;2186;-25
2024/03/18 09:22:10;;;;;;;;;;;;;;;;;;2203867;59;1623;-25
2024/03/18 09:24:40;;;;;;;;;;;;;;;;;;2201740;59;2074;-25
2024/03/18 09:27:12;;;;;;;;;;;;;;;;;;2194175;58;2569;-26
2024/03/18 09:29:42;;;;;;;;;;;;;;;;;;2200479;59;2192;-25
2024/03/18 09:32:12;;;;;;;;;;;;;;;;;;2196785;59;3057;-26
2024/03/18 09:34:42;;;;;;;;;;;;;;;;;;2202981;59;1619;-26
2024/03/18 09:37:14;;;;;;;;;;;;;;;;;;2201803;59;2300;-25
2024/03/18 09:39:44;;;;;;;;;;;;;;;;;;2197011;59;2042;-26
2024/03/18 09:42:17;;;;;;;;;;;;;;;;;;2197040;66;1661;-25
2024/03/18 09:44:47;;;;;;;;;;;;;;;;;;2201309;59;1738;-26
2024/03/18 09:47:22;;;;;;;;;;;;;;;;;;2199866;59;2162;-26
2024/03/18 09:49:53;;;;;;;;;;;;;;;;;;2202970;66;1640;-26
2024/03/18 09:52:24;;;;;;;;;;;;;;;;;;2200944;59;2132;-25
2024/03/18 09:54:55;;;;;;;;;;;;;;;;;;2203063;66;1335;-25
2024/03/18 09:57:28;;;;;;;;;;;;;;;;;;2200818;59;2168;-25
2024/03/18 09:59:58;;;;;;;;;;;;;;;;;;2201796;66;1619;-25
2024/03/18 10:02:28;;;;;;;;;;;;;;;;;;2200245;66;2081;-26
2024/03/18 10:05:04;;;;;;;;;;;;;;;;;;2202048;66;1249;-26
2024/03/18 10:07:34;;;;;;;;;;;;;;;;;;2200790;59;2406;-26
2024/03/18 10:10:06;;;;;;;;;;;;;;;;;;2197598;59;2093;-26
2024/03/18 10:12:39;;;;;;;;;;;;;;;;;;2200389;66;1713;-26
2024/03/18 10:15:12;;;;;;;;;;;;;;;;;;2200999;59;1780;-26
2024/03/18 10:17:43;;;;;;;;;;;;;;;;;;2201823;59;1339;-26
2024/03/18 10:20:18;;;;;;;;;;;;;;;;;;2201023;66;1864;-26
2024/03/18 10:22:51;;;;;;;;;;;;;;;;;;2197688;66;1725;-25
2024/03/18 10:25:23;;;;;;;;;;;;;;;;;;2199430;66;1889;-26
2024/03/18 10:27:54;;;;;;;;;;;;;;;;;;2198067;59;2604;-26
2024/03/18 10:30:25;;;;;;;;;;;;;;;;;;2195807;59;2425;-25
2024/03/18 10:32:57;;;;;;;;;;;;;;;;;;2198705;59;2580;-24
2024/03/18 10:35:30;;;;;;;;;;;;;;;;;;2203650;59;1984;-24
2024/03/18 10:38:00;;;;;;;;;;;;;;;;;;2199527;59;1992;-25
2024/03/18 10:40:34;;;;;;;;;;;;;;;;;;2201543;59;1988;-25
2024/03/18 10:43:06;;;;;;;;;;;;;;;;;;2201629;59;1248;-25
2024/03/18 10:45:37;;;;;;;;;;;;;;;;;;2199921;59;1375;-25
2024/03/18 10:48:10;;;;;;;;;;;;;;;;;;2202136;59;2000;-25
2024/03/18 10:50:41;;;;;;;;;;;;;;;;;;2198090;66;1608;-25
2024/03/18 10:53:16;;;;;;;;;;;;;;;;;;2198126;66;1747;-26
2024/03/18 10:55:48;;;;;;;;;;;;;;;;;;2200165;59;2096;-26
2024/03/18 10:58:23;;;;;;;;;;;;;;;;;;2200095;59;2503;-26
2024/03/18 11:00:53;;;;;;;;;;;;;;;;;;2201569;59;2381;-27
2024/03/18 11:03:24;;;;;;;;;;;;;;;;;;2200910;59;2262;-27
2024/03/18 11:05:55;;;;;;;;;;;;;;;;;;2195868;66;1943;-27
2024/03/18 11:08:26;;;;;;;;;;;;;;;;;;2202221;59;1759;-26
2024/03/18 11:10:57;;;;;;;;;;;;;;;;;;2200039;59;1406;-26
2024/03/18 11:13:36;;;;;;;;;;;;;;;;;;2201846;59;1578;-26
2024/03/18 11:16:08;;;;;;;;;;;;;;;;;;2202244;66;1498;-27
2024/03/18 11:18:43;;;;;;;;;;;;;;;;;;2202210;66;1490;-27
2024/03/18 11:21:18;;;;;;;;;;;;;;;;;;2202123;66;1221;-27
2024/03/18 11:23:56;;;;;;;;;;;;;;;;;;2199430;59;1438;-26
2024/03/18 11:26:28;;;;;;;;;;;;;;;;;;2198195;59;1925;-26
2024/03/18 11:29:03;;;;;;;;;;;;;;;;;;2201768;66;1579;-27
2024/03/18 11:31:37;;;;;;;;;;;;;;;;;;2202157;66;1577;-27
2024/03/18 11:34:08;;;;;;;;;;;;;;;;;;2198507;58;1716;-26
2024/03/18 11:36:39;;;;;;;;;;;;;;;;;;2199986;59;1800;-27
2024/03/18 11:39:12;;;;;;;;;;;;;;;;;;2202223;59;1925;-27
2024/03/18 11:41:45;;;;;;;;;;;;;;;;;;2201864;66;1515;-27
2024/03/18 11:44:15;;;;;;;;;;;;;;;;;;2199680;59;1701;-27
2024/03/18 11:46:45;;;;;;;;;;;;;;;;;;2202508;59;1957;-27
2024/03/18 11:49:21;;;;;;;;;;;;;;;;;;2201983;59;1615;-28
2024/03/18 11:51:51;;;;;;;;;;;;;;;;;;2203398;66;1624;-28
2024/03/18 11:54:22;;;;;;;;;;;;;;;;;;2202328;66;1425;-27
2024/03/18 11:57:02;;;;;;;;;;;;;;;;;;2203850;53;3685;-21
2024/03/18 11:59:33;;;;;;;;;;;;;;;;;;2197030;59;2228;-20
2024/03/18 12:02:04;;;;;;;;;;;;;;;;;;2196434;58;2497;-21
2024/03/18 12:04:35;;;;;;;;;;;;;;;;;;2198144;59;2547;-20
2024/03/18 12:07:07;;;;;;;;;;;;;;;;;;2199340;59;2230;-20
2024/03/18 12:09:37;;;;;;;;;;;;;;;;;;2199239;58;2293;-21
2024/03/18 12:12:08;;;;;;;;;;;;;;;;;;2196145;59;2584;-20
2024/03/18 12:14:39;;;;;;;;;;;;;;;;;;2198256;59;1907;-20
2024/03/18 12:17:11;;;;;;;;;;;;;;;;;;2195621;66;1987;-20
2024/03/18 12:19:59;;;;;;;;;;;;;;;;;;2193115;59;2398;-20
2024/03/18 12:22:30;;;;;;;;;;;;;;;;;;2198893;59;2383;-20
2024/03/18 12:30:56;;;;;;;;;;;;;;;;;;2198458;59;3284;-20
2024/03/18 12:33:30;;;;;;;;;;;;;;;;;;2196739;59;1925;-20
2024/03/18 12:36:03;;;;;;;;;;;;;;;;;;2195437;59;1953;-20
2024/03/18 12:38:37;;;;;;;;;;;;;;;;;;2197821;59;2518;-20
2024/03/18 12:41:15;;;;;;;;;;;;;;;;;;2198653;59;2003;-20
2024/03/18 12:43:46;;;;;;;;;;;;;;;;;;2198528;59;2451;-20
2024/03/18 12:46:17;;;;;;;;;;;;;;;;;;2198873;59;2448;-20
2024/03/18 12:48:47;;;;;;;;;;;;;;;;;;2198037;58;1923;-21
2024/03/18 12:51:20;;;;;;;;;;;;;;;;;;2195067;60;2534;-20
2024/03/18 12:53:51;;;;;;;;;;;;;;;;;;2197225;66;1888;-20
2024/03/18 12:56:21;;;;;;;;;;;;;;;;;;2198689;59;1984;-20
2024/03/18 12:58:51;;;;;;;;;;;;;;;;;;2193559;59;2894;-20
2024/03/18 13:01:22;;;;;;;;;;;;;;;;;;2198744;59;2573;-20
2024/03/18 13:03:52;;;;;;;;;;;;;;;;;;2195968;66;1888;-20
2024/03/18 13:06:23;;;;;;;;;;;;;;;;;;2194351;66;2718;-20
2024/03/18 13:08:55;;;;;;;;;;;;;;;;;;2196421;66;1919;-20
2024/03/18 13:11:27;;;;;;;;;;;;;;;;;;2194568;59;2721;-20
2024/03/18 13:13:57;;;;;;;;;;;;;;;;;;2198838;59;2521;-20
2024/03/18 13:16:29;;;;;;;;;;;;;;;;;;2196728;59;2086;-20
2024/03/18 13:18:59;;;;;;;;;;;;;;;;;;2193247;59;2827;-20
2024/03/18 13:21:31;;;;;;;;;;;;;;;;;;2197216;59;1890;-20
2024/03/18 13:24:01;;;;;;;;;;;;;;;;;;2198541;59;1738;-20
2024/03/18 13:26:31;;;;;;;;;;;;;;;;;;2196858;59;2091;-20
2024/03/18 13:29:02;;;;;;;;;;;;;;;;;;2209360;66;2033;-20
2024/03/18 13:31:33;;;;;;;;;;;;;;;;;;2197214;59;1859;-20
2024/03/18 13:34:03;;;;;;;;;;;;;;;;;;2193796;59;2511;-20
2024/03/18 13:36:34;;;;;;;;;;;;;;;;;;2197059;66;1892;-20
2024/03/18 13:39:05;;;;;;;;;;;;;;;;;;2195034;59;2118;-20
2024/03/18 13:41:37;;;;;;;;;;;;;;;;;;2194268;66;1878;-20
2024/03/18 13:44:09;;;;;;;;;;;;;;;;;;2196697;66;1912;-20
2024/03/18 13:46:39;;;;;;;;;;;;;;;;;;2197616;59;1989;-20
2024/03/18 13:49:12;;;;;;;;;;;;;;;;;;2197485;59;2223;-20
2024/03/18 13:51:43;;;;;;;;;;;;;;;;;;2194046;59;1934;-20
2024/03/18 13:54:13;;;;;;;;;;;;;;;;;;2194111;59;2837;-20
2024/03/18 13:56:43;;;;;;;;;;;;;;;;;;2193825;59;2909;-20
2024/03/18 13:59:14;;;;;;;;;;;;;;;;;;2197621;66;1804;-20
2024/03/18 14:01:44;;;;;;;;;;;;;;;;;;2197855;59;2194;-20
2024/03/18 14:04:16;;;;;;;;;;;;;;;;;;2195542;59;2007;-20
2024/03/18 14:06:46;;;;;;;;;;;;;;;;;;2194380;60;2516;-20
2024/03/18 14:09:21;;;;;;;;;;;;;;;;;;2197713;60;1753;-20
2024/03/18 14:11:52;;;;;;;;;;;;;;;;;;2198180;59;2131;-20
2024/03/18 14:14:22;;;;;;;;;;;;;;;;;;2198965;59;1999;-20
2024/03/18 14:16:54;;;;;;;;;;;;;;;;;;2193605;66;2372;-20
2024/03/18 14:19:24;;;;;;;;;;;;;;;;;;2198731;59;2579;-20
2024/03/18 14:21:55;;;;;;;;;;;;;;;;;;2194060;59;1890;-20
2024/03/18 14:24:25;;;;;;;;;;;;;;;;;;2199022;59;1743;-20
2024/03/18 14:26:55;;;;;;;;;;;;;;;;;;2194824;66;2151;-20
2024/03/18 14:29:26;;;;;;;;;;;;;;;;;;2192117;67;2411;-20
2024/03/18 14:31:56;;;;;;;;;;;;;;;;;;2193014;60;2264;-20
2024/03/18 14:34:27;;;;;;;;;;;;;;;;;;2197031;59;1818;-20
2024/03/18 14:37:04;;;;;;;;;;;;;;;;;;2197405;59;2103;-20
2024/03/18 14:39:36;;;;;;;;;;;;;;;;;;2194791;59;1979;-20
2024/03/18 14:42:11;;;;;;;;;;;;;;;;;;2195714;66;1922;-20
2024/03/18 14:44:41;;;;;;;;;;;;;;;;;;2195371;58;1861;-20
2024/03/18 14:47:11;;;;;;;;;;;;;;;;;;2199136;66;1944;-20
2024/03/18 14:49:43;;;;;;;;;;;;;;;;;;2198233;59;2209;-20
2024/03/18 14:52:13;;;;;;;;;;;;;;;;;;2197893;59;1732;-20
2024/03/18 14:54:44;;;;;;;;;;;;;;;;;;2197163;66;1859;-20
2024/03/18 14:57:14;;;;;;;;;;;;;;;;;;2195208;59;2606;-20
2024/03/18 14:59:44;;;;;;;;;;;;;;;;;;2196154;66;2701;-20
2024/03/18 15:02:15;;;;;;;;;;;;;;;;;;2196544;59;2043;-20
2024/03/18 15:04:45;;;;;;;;;;;;;;;;;;2197196;59;1854;-20
2024/03/18 15:07:15;;;;;;;;;;;;;;;;;;2197644;66;1989;-21
2024/03/18 15:09:46;;;;;;;;;;;;;;;;;;2196650;66;1877;-20
2024/03/18 15:12:16;;;;;;;;;;;;;;;;;;2196346;59;2225;-20
2024/03/18 15:14:46;;;;;;;;;;;;;;;;;;2196122;59;1793;-20
2024/03/18 15:17:17;;;;;;;;;;;;;;;;;;2197013;59;2083;-20
2024/03/18 15:19:47;;;;;;;;;;;;;;;;;;2196418;59;1881;-20
2024/03/18 15:22:17;;;;;;;;;;;;;;;;;;2197883;66;2440;-20
2024/03/18 15:24:50;;;;;;;;;;;;;;;;;;2196201;59;1949;-20
2024/03/18 15:28:04;;;;;;;;;;;;;;;;;;2193873;66;2437;-20
2024/03/18 15:30:15;;;;;;;;;;;;;;;;;;2196022;59;1870;-20
2024/03/18 15:32:46;;;;;;;;;;;;;;;;;;2196614;66;1867;-20
2024/03/18 15:35:16;;;;;;;;;;;;;;;;;;2194326;59;2484;-20
2024/03/18 15:37:46;;;;;;;;;;;;;;;;;;2197150;59;1921;-20
2024/03/18 15:40:17;;;;;;;;;;;;;;;;;;2197692;59;1837;-20
2024/03/18 15:42:49;;;;;;;;;;;;;;;;;;2191687;59;1950;-20
2024/03/18 15:45:19;;;;;;;;;;;;;;;;;;2193822;59;1894;-20
2024/03/18 15:47:50;;;;;;;;;;;;;;;;;;2195967;59;1990;-20
2024/03/18 15:50:20;;;;;;;;;;;;;;;;;;2196353;66;2637;-20
2024/03/18 15:52:51;;;;;;;;;;;;;;;;;;2192677;66;1815;-20
2024/03/18 15:55:21;;;;;;;;;;;;;;;;;;2197305;66;2507;-20
2024/03/18 15:57:51;;;;;;;;;;;;;;;;;;2193646;59;1946;-20
2024/03/18 16:00:22;;;;;;;;;;;;;;;;;;2195185;66;1843;-20
2024/03/18 16:02:57;;;;;;;;;;;;;;;;;;2192038;66;1994;-20
2024/03/18 16:05:30;;;;;;;;;;;;;;;;;;2194316;66;1939;-20
2024/03/18 16:08:00;;;;;;;;;;;;;;;;;;2192176;58;2114;-19
2024/03/18 16:10:31;;;;;;;;;;;;;;;;;;2193599;66;1799;-20
2024/03/18 16:13:04;;;;;;;;;;;;;;;;;;2196776;66;1832;-20
2024/03/18 16:15:35;;;;;;;;;;;;;;;;;;2198539;59;1804;-20
2024/03/18 16:18:06;;;;;;;;;;;;;;;;;;2198527;66;1960;-19
2024/03/18 16:20:38;;;;;;;;;;;;;;;;;;2193841;59;1980;-19
2024/03/18 16:23:08;;;;;;;;;;;;;;;;;;2194155;66;1889;-20
2024/03/18 16:25:38;;;;;;;;;;;;;;;;;;2195373;66;2540;-19
2024/03/18 16:28:09;;;;;;;;;;;;;;;;;;2197197;66;2818;-20
2024/03/18 16:30:40;;;;;;;;;;;;;;;;;;2195841;59;1833;-20
2024/03/18 16:33:11;;;;;;;;;;;;;;;;;;2198377;59;1888;-20
2024/03/18 16:35:42;;;;;;;;;;;;;;;;;;2193545;66;1860;-20
2024/03/18 16:38:12;;;;;;;;;;;;;;;;;;2198983;59;2082;-20
2024/03/18 16:40:42;;;;;;;;;;;;;;;;;;2197162;59;2024;-20
2024/03/18 16:43:13;;;;;;;;;;;;;;;;;;2192159;67;2354;-20
2024/03/18 16:45:43;;;;;;;;;;;;;;;;;;2196541;59;2590;-19
2024/03/18 16:48:16;;;;;;;;;;;;;;;;;;2197799;59;1939;-20
2024/03/18 16:50:47;;;;;;;;;;;;;;;;;;2195989;66;1869;-20
2024/03/18 16:53:17;;;;;;;;;;;;;;;;;;2198148;66;2194;-20
2024/03/18 16:55:48;;;;;;;;;;;;;;;;;;2193903;59;2651;-20
2024/03/18 16:58:19;;;;;;;;;;;;;;;;;;2192886;59;1877;-29
2024/03/18 17:00:49;;;;;;;;;;;;;;;;;;2196648;66;1817;-20
2024/03/18 17:03:19;;;;;;;;;;;;;;;;;;2197850;66;1948;-19
2024/03/18 17:05:50;;;;;;;;;;;;;;;;;;2195195;66;1986;-20
2024/03/18 17:08:20;;;;;;;;;;;;;;;;;;2197706;66;1939;-20
2024/03/18 17:10:50;;;;;;;;;;;;;;;;;;2196806;66;2058;-19
2024/03/18 17:13:21;;;;;;;;;;;;;;;;;;2197787;59;2057;-19
2024/03/18 17:15:51;;;;;;;;;;;;;;;;;;2197746;59;1819;-20
2024/03/18 17:18:21;;;;;;;;;;;;;;;;;;2194762;66;1864;-33
2024/03/18 17:20:52;;;;;;;;;;;;;;;;;;2196422;66;1843;-19
2024/03/18 17:23:23;;;;;;;;;;;;;;;;;;2194477;59;2351;-19
2024/03/18 17:25:53;;;;;;;;;;;;;;;;;;2196705;66;1819;-20
2024/03/18 17:28:23;;;;;;;;;;;;;;;;;;2197620;66;2491;-19
2024/03/18 17:30:53;;;;;;;;;;;;;;;;;;2196848;66;1969;-19
2024/03/18 17:33:25;;;;;;;;;;;;;;;;;;2197835;59;2300;-19
2024/03/18 17:35:58;;;;;;;;;;;;;;;;;;2194415;66;1891;-19